Terminal Aerodrome Forecast
Issued by NWS Cleveland, OH

Home | Current Version | Previous Version | Graphics & Text | Print | Product List | Glossary On
Versions: 1 2 3 4 5 6 7 8 9 10 11 12 13 14 15 16 17
000
FTUS41 KCLE 202328
TAFMFD
TAF
KMFD 202328Z 2100/2124 17004KT P6SM VCSH SCT040 BKN120
     FM210200 VRB03KT P6SM BKN150
     FM210900 VRB03KT 4SM BR BKN250
     FM211300 21006KT P6SM BKN070=

USA.gov is the U.S. government's official web portal to all federal, state and local government web resources and services.